Time;durP1;ratioP1;P1;durP2;ratioP2;P2;SDS_P1;SDS_P2;PMS_P1;PMS_P2;Temp;Humidity;BMP_temperature;BMP_pressure;BME280_temperature;BME280_humidity;BME280_pressure;Samples;Min_cycle;Max_cycle;Signal;HPM_P1;HPM_P2
2022/11/20 00:00:51;;;;;;;3.00;1.13;;;;;;;18.91;51.03;94379.47;4936406;28;20556;-63
2022/11/20 00:03:18;;;;;;;0.10;0.10;;;;;;;19.07;50.89;94357.38;4940859;29;20798;-62
2022/11/20 00:05:45;;;;;;;2.27;0.73;;;;;;;19.22;50.87;94374.63;4951558;28;20537;-61
2022/11/20 00:08:12;;;;;;;5.07;0.97;;;;;;;18.90;51.38;94397.28;4952071;28;20452;-64
2022/11/20 00:10:40;;;;;;;1.03;0.73;;;;;;;18.57;52.05;94390.22;4951792;28;20971;-64
2022/11/20 00:13:08;;;;;;;0.43;0.43;;;;;;;19.10;50.85;94388.59;4938099;28;21033;-65
2022/11/20 00:15:34;;;;;;;0.77;0.37;;;;;;;18.89;51.37;94393.06;4941267;28;20452;-62
2022/11/20 00:18:01;;;;;;;1.27;1.23;;;;;;;19.04;51.43;94389.88;4949823;28;20482;-62
2022/11/20 00:20:28;;;;;;;3.83;1.70;;;;;;;19.10;50.82;94374.56;4951626;28;20452;-65
2022/11/20 00:22:55;;;;;;;0.83;0.53;;;;;;;18.24;53.06;94403.22;4936662;28;20456;-62
2022/11/20 00:25:21;;;;;;;0.77;0.43;;;;;;;18.55;52.62;94395.06;4939937;29;20841;-62
2022/11/20 00:27:48;;;;;;;0.40;0.40;;;;;;;19.04;51.10;94352.72;4938432;29;20532;-64
2022/11/20 00:30:15;;;;;;;0.20;0.20;;;;;;;18.98;51.51;94375.22;4937940;29;20475;-64
2022/11/20 00:32:42;;;;;;;0.10;0.10;;;;;;;18.83;51.62;94391.69;4951603;28;20451;-63
2022/11/20 00:35:09;;;;;;;2.47;1.53;;;;;;;19.35;50.46;94343.63;4937769;28;20534;-62
2022/11/20 00:37:36;;;;;;;1.13;1.10;;;;;;;19.38;50.30;94358.94;4952049;28;20515;-65
2022/11/20 00:40:03;;;;;;;0.00;0.00;;;;;;;19.00;51.12;94373.03;4951326;28;20483;-64
2022/11/20 00:42:32;;;;;;;0.83;0.83;;;;;;;18.59;51.85;94366.81;4951833;28;20451;-63
2022/11/20 00:44:59;;;;;;;0.50;0.50;;;;;;;18.81;51.14;94385.91;4936561;28;20464;-62
2022/11/20 00:47:26;;;;;;;0.10;0.10;;;;;;;19.16;50.11;94371.38;4939682;29;20499;-63
2022/11/20 00:49:52;;;;;;;0.40;0.40;;;;;;;19.29;49.59;94363.50;4938314;28;20475;-64
2022/11/20 00:52:19;;;;;;;0.90;0.80;;;;;;;19.26;48.68;94369.44;4934920;29;20523;-66
2022/11/20 00:54:46;;;;;;;0.23;0.23;;;;;;;19.28;48.54;94367.25;4943487;28;20990;-63
2022/11/20 00:57:13;;;;;;;0.23;0.23;;;;;;;18.60;50.48;94392.22;4940920;29;20471;-63
2022/11/20 00:59:40;;;;;;;0.33;0.33;;;;;;;18.87;49.47;94394.47;4951204;28;20435;-63
2022/11/20 01:02:07;;;;;;;0.53;0.53;;;;;;;19.49;48.53;94362.78;4939681;28;20437;-65
2022/11/20 01:04:33;;;;;;;0.30;0.30;;;;;;;19.47;48.32;94346.38;4945415;28;20445;-64
2022/11/20 01:07:00;;;;;;;0.37;0.37;;;;;;;19.71;47.40;94365.09;4931829;29;20579;-63
2022/11/20 01:09:27;;;;;;;0.20;0.20;;;;;;;19.77;46.65;94369.13;4948069;28;20483;-64
2022/11/20 01:11:54;;;;;;;0.20;0.20;;;;;;;20.14;45.59;94349.56;4951244;28;20440;-65
2022/11/20 01:14:21;;;;;;;0.00;0.00;;;;;;;20.11;45.60;94342.22;4937762;28;20468;-64
2022/11/20 01:16:50;;;;;;;0.93;0.77;;;;;;;19.58;46.07;94361.59;4950948;28;20444;-64
2022/11/20 01:19:20;;;;;;;1.03;0.80;;;;;;;19.71;45.07;94341.19;4937949;28;20436;-64
2022/11/20 01:21:53;;;;;;;0.83;0.67;;;;;;;19.90;44.64;94323.66;4931756;29;20448;-62
2022/11/20 01:24:21;;;;;;;0.37;0.37;;;;;;;20.14;43.81;94326.38;4931611;29;20974;-62
2022/11/20 01:26:50;;;;;;;0.20;0.20;;;;;;;20.45;44.08;94322.50;4945034;29;20476;-64
2022/11/20 01:29:22;;;;;;;0.30;0.30;;;;;;;20.49;44.29;94321.50;4943537;29;20827;-64
2022/11/20 01:31:51;;;;;;;0.00;0.00;;;;;;;20.31;44.35;94319.38;4945836;28;20546;-63
2022/11/20 01:34:19;;;;;;;0.67;0.67;;;;;;;20.25;44.71;94305.53;4932015;29;20440;-64
2022/11/20 01:36:47;;;;;;;6.03;1.30;;;;;;;19.94;44.80;94313.16;4948253;29;20447;-64
2022/11/20 01:39:17;;;;;;;0.30;0.30;;;;;;;19.73;45.85;94320.38;4951318;28;20447;-64
2022/11/20 01:44:56;;;;;;;0.60;0.60;;;;;;;20.34;45.01;94314.19;4950632;28;20505;-63
2022/11/20 01:47:32;;;;;;;0.20;0.20;;;;;;;19.60;46.52;94332.03;4931773;29;21013;-63
2022/11/20 01:50:05;;;;;;;0.33;0.33;;;;;;;19.55;46.50;94319.75;4945900;28;20478;-63
2022/11/20 01:52:40;;;;;;;1.53;0.63;;;;;;;19.58;45.83;94297.81;4931428;29;20958;-66
2022/11/20 01:55:14;;;;;;;0.10;0.10;;;;;;;19.75;46.06;94296.91;4931657;29;20629;-64
2022/11/20 01:57:43;;;;;;;0.43;0.43;;;;;;;20.33;44.62;94301.97;4935005;29;20991;-64
2022/11/20 02:00:13;;;;;;;0.30;0.30;;;;;;;20.26;44.47;94295.63;4950678;28;20455;-63
2022/11/20 02:02:44;;;;;;;0.00;0.00;;;;;;;20.49;44.26;94289.56;4950737;28;20447;-62
2022/11/20 02:05:27;;;;;;;0.63;0.50;;;;;;;20.56;42.90;94311.13;4953187;28;20481;-64
2022/11/20 02:07:57;;;;;;;0.00;0.00;;;;;;;20.60;43.14;94319.97;4950386;29;20483;-62
2022/11/20 02:10:24;;;;;;;0.00;0.00;;;;;;;20.62;43.33;94317.75;4945258;29;20490;-64
2022/11/20 02:15:37;;;;;;;1.80;0.50;;;;;;;20.51;43.07;94313.97;4942803;28;20877;-65
2022/11/20 02:18:05;;;;;;;0.10;0.10;;;;;;;20.73;42.55;94310.88;4938899;29;20519;-65
2022/11/20 02:20:32;;;;;;;1.00;1.00;;;;;;;20.31;43.18;94333.44;4954371;28;20451;-65
2022/11/20 02:23:13;;;;;;;8.80;1.07;;;;;;;20.65;42.35;94306.47;4938075;28;20456;-63
2022/11/20 02:25:42;;;;;;;1.00;0.93;;;;;;;20.33;42.97;94317.94;4934580;29;20942;-64
2022/11/20 02:28:10;;;;;;;0.20;0.20;;;;;;;19.97;42.75;94331.09;4950428;29;20994;-64
2022/11/20 02:30:36;;;;;;;0.00;0.00;;;;;;;20.72;42.00;94293.38;4953537;28;20455;-64
2022/11/20 02:33:03;;;;;;;0.10;0.10;;;;;;;20.91;42.35;94319.44;4940210;28;20457;-64
2022/11/20 02:35:31;;;;;;;0.20;0.20;;;;;;;20.27;42.77;94329.91;4946515;28;20437;-64
2022/11/20 02:38:00;;;;;;;1.53;0.43;;;;;;;20.65;42.42;94324.31;4934530;29;20463;-63
2022/11/20 02:40:28;;;;;;;0.00;0.00;;;;;;;21.08;41.67;94322.69;4940154;29;20542;-62
2022/11/20 02:42:56;;;;;;;0.17;0.17;;;;;;;21.11;40.10;94327.31;4941471;28;20448;-61
2022/11/20 02:45:23;;;;;;;0.10;0.10;;;;;;;20.91;40.22;94322.88;4951550;28;20515;-65
2022/11/20 02:47:51;;;;;;;0.00;0.00;;;;;;;21.38;39.63;94330.41;4942959;29;20476;-64
2022/11/20 02:50:18;;;;;;;0.10;0.10;;;;;;;21.09;39.68;94318.88;4935372;29;20443;-62
2022/11/20 02:52:46;;;;;;;0.10;0.10;;;;;;;21.54;38.77;94339.25;4934061;29;20979;-64
2022/11/20 02:55:12;;;;;;;0.10;0.10;;;;;;;21.62;38.60;94335.69;4945242;29;20959;-64
2022/11/20 02:57:39;;;;;;;0.00;0.00;;;;;;;22.09;37.88;94347.34;4939778;28;20446;-61
2022/11/20 03:00:08;;;;;;;0.10;0.10;;;;;;;22.06;37.58;94350.69;4953207;28;20794;-61
2022/11/20 03:02:35;;;;;;;0.13;0.13;;;;;;;21.33;38.76;94371.38;4950921;28;20475;-61
2022/11/20 03:05:02;;;;;;;0.00;0.00;;;;;;;21.45;39.10;94351.94;4942184;29;20534;-63
2022/11/20 03:07:29;;;;;;;0.00;0.00;;;;;;;21.68;38.92;94367.09;4953136;28;20471;-63
2022/11/20 03:09:56;;;;;;;0.10;0.10;;;;;;;22.66;37.23;94369.06;4953572;28;20436;-63
2022/11/20 03:12:23;;;;;;;0.07;0.07;;;;;;;22.41;37.81;94362.31;4953323;28;20533;-62
2022/11/20 03:14:50;;;;;;;0.10;0.10;;;;;;;21.85;38.42;94366.09;4939189;28;20482;-63
2022/11/20 03:17:19;;;;;;;0.10;0.10;;;;;;;22.18;37.85;94374.66;4952520;28;20443;-65
2022/11/20 03:19:45;;;;;;;0.10;0.10;;;;;;;21.76;38.60;94368.09;4952953;28;20881;-69
2022/11/20 03:22:12;;;;;;;0.50;0.50;;;;;;;22.48;37.44;94367.81;4953209;28;20455;-67
2022/11/20 03:24:39;;;;;;;0.10;0.10;;;;;;;22.37;37.65;94390.78;4951085;28;20605;-61
2022/11/20 03:27:06;;;;;;;0.10;0.10;;;;;;;22.27;37.61;94372.59;4933847;29;20492;-64
2022/11/20 03:29:35;;;;;;;0.33;0.33;;;;;;;21.80;38.19;94385.78;4947608;28;20447;-63
2022/11/20 03:32:02;;;;;;;0.40;0.40;;;;;;;22.56;37.32;94368.81;4952549;28;20483;-64
2022/11/20 03:34:29;;;;;;;0.20;0.20;;;;;;;22.86;36.93;94384.09;4952927;28;20447;-64
2022/11/20 03:36:55;;;;;;;0.00;0.00;;;;;;;22.74;37.43;94386.84;4948174;28;20484;-63
2022/11/20 03:39:22;;;;;;;0.10;0.10;;;;;;;22.61;37.82;94385.34;4933599;28;20483;-63
2022/11/20 03:41:50;;;;;;;0.10;0.10;;;;;;;22.91;37.02;94396.44;4946533;28;20448;-64
2022/11/20 03:44:17;;;;;;;0.10;0.10;;;;;;;22.76;36.90;94389.94;4942580;28;20439;-62
2022/11/20 03:46:43;;;;;;;0.13;0.13;;;;;;;22.69;37.15;94392.44;4938437;28;20480;-64
2022/11/20 03:49:10;;;;;;;0.00;0.00;;;;;;;22.56;37.45;94398.97;4952673;28;20443;-63
2022/11/20 03:51:37;;;;;;;0.40;0.40;;;;;;;22.46;38.25;94396.00;4940090;28;20906;-64
2022/11/20 03:54:06;;;;;;;0.10;0.10;;;;;;;22.59;37.64;94394.84;4933399;29;20202;-64
2022/11/20 03:56:36;;;;;;;0.10;0.10;;;;;;;22.32;37.81;94391.03;4941020;29;20942;-65
2022/11/20 03:59:04;;;;;;;0.10;0.10;;;;;;;22.38;38.22;94386.22;4952251;28;20479;-65
2022/11/20 04:01:35;;;;;;;0.00;0.00;;;;;;;21.86;37.93;94389.75;4952201;28;20886;-65
2022/11/20 04:04:02;;;;;;;0.10;0.10;;;;;;;22.23;38.00;94382.41;4952300;28;20874;-64
2022/11/20 04:06:34;;;;;;;0.07;0.07;;;;;;;22.38;37.66;94383.56;4951808;28;21154;-64
2022/11/20 04:09:01;;;;;;;0.00;0.00;;;;;;;22.14;37.54;94392.44;4951924;28;20450;-66
2022/11/20 04:11:30;;;;;;;0.10;0.10;;;;;;;22.06;37.42;94396.81;4938168;28;20506;-63
2022/11/20 04:13:59;;;;;;;0.10;0.10;;;;;;;22.52;37.39;94399.94;4940596;28;20449;-63
2022/11/20 04:16:30;;;;;;;0.10;0.10;;;;;;;22.69;36.74;94387.09;4946042;28;20488;-64
2022/11/20 04:19:02;;;;;;;0.10;0.10;;;;;;;22.47;37.75;94387.63;4932666;29;20458;-65
2022/11/20 04:21:29;;;;;;;0.00;0.00;;;;;;;21.78;37.97;94388.00;4936222;29;20943;-67
2022/11/20 04:23:57;;;;;;;0.83;0.83;;;;;;;22.12;37.62;94400.00;4942393;28;20441;-62
2022/11/20 04:26:26;;;;;;;0.03;0.03;;;;;;;22.46;37.28;94399.44;4945682;29;21021;-62
2022/11/20 04:28:53;;;;;;;0.37;0.37;;;;;;;22.11;37.73;94409.94;4932130;29;20487;-62
2022/11/20 04:31:22;;;;;;;0.17;0.17;;;;;;;21.52;38.44;94410.78;4945911;29;20558;-63
2022/11/20 04:33:50;;;;;;;0.10;0.10;;;;;;;21.63;38.52;94409.22;4932356;29;20448;-65
2022/11/20 04:36:27;;;;;;;0.33;0.33;;;;;;;22.21;37.58;94413.25;4932495;29;20472;-64
2022/11/20 04:38:59;;;;;;;0.10;0.10;;;;;;;22.07;37.99;94416.28;4932593;28;20927;-63
2022/11/20 04:41:32;;;;;;;0.00;0.00;;;;;;;22.26;37.51;94413.00;4954081;28;20514;-62
2022/11/20 04:44:04;;;;;;;0.10;0.10;;;;;;;22.13;37.80;94410.34;4939109;29;20444;-64
2022/11/20 04:46:37;;;;;;;0.10;0.10;;;;;;;22.19;37.52;94410.88;4931942;29;20487;-67
2022/11/20 04:49:05;;;;;;;6.67;0.50;;;;;;;22.35;37.60;94400.28;4932433;28;20451;-66
2022/11/20 04:51:32;;;;;;;0.10;0.10;;;;;;;23.08;36.39;94385.41;4932134;29;20891;-63
2022/11/20 04:53:59;;;;;;;0.10;0.10;;;;;;;23.02;36.86;94382.22;4946988;29;20242;-63
2022/11/20 04:56:26;;;;;;;0.10;0.10;;;;;;;22.53;37.61;94378.28;4951089;28;20901;-68
2022/11/20 04:58:53;;;;;;;0.00;0.00;;;;;;;22.17;37.66;94395.22;4951630;28;20223;-65
2022/11/20 05:01:24;;;;;;;0.10;0.10;;;;;;;22.68;37.37;94380.19;4938238;29;20443;-68
2022/11/20 05:03:52;;;;;;;0.10;0.10;;;;;;;22.71;37.16;94374.19;4951373;28;20440;-65
2022/11/20 05:06:21;;;;;;;0.10;0.10;;;;;;;21.87;38.96;94374.53;4937473;28;20752;-66
2022/11/20 05:08:49;;;;;;;0.10;0.10;;;;;;;22.34;38.36;94364.78;4950897;28;20581;-65
2022/11/20 05:11:18;;;;;;;0.00;0.00;;;;;;;22.32;38.11;94372.34;4947509;28;20535;-66
2022/11/20 05:13:47;;;;;;;0.00;0.00;;;;;;;22.14;38.47;94379.91;4942022;28;20459;-68
2022/11/20 05:16:17;;;;;;;0.40;0.40;;;;;;;22.22;37.97;94380.88;4937278;28;20448;-63
2022/11/20 05:18:45;;;;;;;0.10;0.10;;;;;;;22.30;38.22;94371.91;4951116;28;20439;-63
2022/11/20 05:21:12;;;;;;;0.17;0.17;;;;;;;22.11;38.74;94363.78;4937837;28;20550;-67
2022/11/20 05:23:40;;;;;;;0.00;0.00;;;;;;;22.12;39.09;94368.00;4953419;28;20483;-63
2022/11/20 05:26:12;;;;;;;0.00;0.00;;;;;;;21.90;40.06;94361.31;4951260;28;20447;-66
2022/11/20 05:28:39;;;;;;;0.00;0.00;;;;;;;21.81;40.69;94343.88;4951308;28;20515;-64
2022/11/20 05:31:14;;;;;;;0.37;0.37;;;;;;;21.43;42.23;94343.50;4951288;28;20506;-63
2022/11/20 05:33:43;;;;;;;0.10;0.10;;;;;;;21.26;43.27;94349.09;4938145;29;20447;-64
2022/11/20 05:36:11;;;;;;;0.00;0.00;;;;;;;21.20;43.41;94345.09;4938728;28;20945;-68
2022/11/20 05:38:39;;;;;;;0.30;0.30;;;;;;;21.30;43.21;94365.94;4936445;28;20490;-64
2022/11/20 05:41:16;;;;;;;0.00;0.00;;;;;;;21.41;43.43;94373.16;4943754;28;20551;-64
2022/11/20 05:43:45;;;;;;;0.67;0.67;;;;;;;21.26;43.76;94370.41;4949267;29;20963;-65
2022/11/20 05:46:30;;;;;;;0.33;0.33;;;;;;;21.43;43.29;94360.28;4946140;29;20522;-66
2022/11/20 05:48:58;;;;;;;0.10;0.10;;;;;;;21.44;43.49;94355.72;4941330;29;20479;-67
2022/11/20 05:51:26;;;;;;;3.60;1.23;;;;;;;21.31;43.81;94352.31;4944104;28;20507;-65
2022/11/20 05:53:53;;;;;;;0.00;0.00;;;;;;;21.31;43.65;94356.84;4948752;29;20566;-66
2022/11/20 05:56:21;;;;;;;0.00;0.00;;;;;;;21.40;43.64;94354.84;4941669;29;20478;-65
2022/11/20 05:58:49;;;;;;;0.03;0.03;;;;;;;20.93;44.46;94373.91;4954456;28;20451;-63
2022/11/20 06:01:25;;;;;;;1.40;0.87;;;;;;;20.85;44.19;94376.69;4941330;28;20474;-66
2022/11/20 06:03:54;;;;;;;0.20;0.20;;;;;;;21.11;43.71;94375.28;4954361;28;20989;-64
2022/11/20 06:06:21;;;;;;;0.00;0.00;;;;;;;21.02;43.59;94360.53;4940687;28;21296;-64
2022/11/20 06:08:48;;;;;;;0.20;0.20;;;;;;;21.08;43.62;94359.19;4954249;28;20487;-65
2022/11/20 06:11:16;;;;;;;0.00;0.00;;;;;;;20.79;44.23;94364.69;4940932;28;20462;-63
2022/11/20 06:13:43;;;;;;;0.47;0.23;;;;;;;20.59;44.50;94369.00;4954426;28;20467;-65
2022/11/20 06:16:13;;;;;;;0.10;0.10;;;;;;;20.64;44.45;94402.59;4954197;28;20471;-64
2022/11/20 06:18:40;;;;;;;0.10;0.10;;;;;;;21.43;42.71;94367.50;4945923;28;20450;-64
2022/11/20 06:21:10;;;;;;;1.13;0.40;;;;;;;21.71;42.20;94376.34;4935601;29;20547;-63
2022/11/20 06:23:37;;;;;;;0.30;0.30;;;;;;;21.56;42.23;94382.34;4953920;28;20608;-63
2022/11/20 06:26:07;;;;;;;0.00;0.00;;;;;;;21.47;42.44;94387.03;4941099;28;20834;-66
2022/11/20 06:28:34;;;;;;;0.00;0.00;;;;;;;21.96;41.95;94393.84;4941192;28;20467;-67
2022/11/20 06:31:02;;;;;;;0.00;0.00;;;;;;;21.73;41.75;94395.44;4942154;28;20526;-66
2022/11/20 06:33:29;;;;;;;0.10;0.10;;;;;;;21.82;41.80;94404.13;4935130;29;20471;-65
2022/11/20 06:36:00;;;;;;;0.10;0.10;;;;;;;21.96;41.39;94396.50;4945319;29;20458;-64
2022/11/20 06:38:34;;;;;;;0.30;0.30;;;;;;;21.72;42.01;94384.00;4958385;28;20503;-66
2022/11/20 06:41:02;;;;;;;0.43;0.30;;;;;;;21.52;42.50;94382.25;4954362;28;20518;-65
2022/11/20 06:43:29;;;;;;;0.20;0.20;;;;;;;21.47;42.35;94371.03;4941582;28;20470;-66
2022/11/20 06:45:58;;;;;;;1.50;0.77;;;;;;;21.90;41.49;94379.19;4945564;28;20482;-66
2022/11/20 06:48:28;;;;;;;0.47;0.43;;;;;;;21.96;41.46;94388.50;4949542;29;20486;-65
2022/11/20 06:50:56;;;;;;;0.20;0.20;;;;;;;21.96;41.28;94388.50;4944606;28;20460;-65
2022/11/20 06:53:24;;;;;;;2.43;0.97;;;;;;;21.93;41.19;94394.53;4944728;29;20448;-67
2022/11/20 06:55:51;;;;;;;0.67;0.57;;;;;;;21.87;41.24;94401.22;4940045;28;20464;-67
2022/11/20 06:58:19;;;;;;;0.20;0.20;;;;;;;22.14;41.18;94401.25;4944396;28;20511;-65
2022/11/20 07:00:45;;;;;;;0.10;0.10;;;;;;;22.24;40.60;94402.66;4947294;29;20487;-66
2022/11/20 07:03:14;;;;;;;0.20;0.20;;;;;;;21.69;40.86;94405.22;4941179;29;21192;-65
2022/11/20 07:05:41;;;;;;;0.47;0.47;;;;;;;21.94;40.54;94410.19;4953224;28;20514;-65
2022/11/20 07:08:09;;;;;;;0.10;0.10;;;;;;;21.81;40.74;94405.22;4953101;28;20602;-67
2022/11/20 07:10:36;;;;;;;0.10;0.10;;;;;;;22.03;40.65;94404.72;4953180;28;20455;-65
2022/11/20 07:13:03;;;;;;;0.00;0.00;;;;;;;21.84;40.36;94412.56;4948791;28;20456;-65
2022/11/20 07:15:30;;;;;;;0.00;0.00;;;;;;;22.13;40.00;94409.59;4944125;29;20455;-66
2022/11/20 07:18:00;;;;;;;0.10;0.10;;;;;;;22.26;40.00;94403.09;4952977;28;20898;-69
2022/11/20 07:20:28;;;;;;;0.07;0.07;;;;;;;22.21;40.25;94408.66;4944248;28;20876;-67
2022/11/20 07:22:55;;;;;;;0.10;0.10;;;;;;;22.27;39.93;94407.31;4948913;28;21236;-66
2022/11/20 07:25:26;;;;;;;0.10;0.10;;;;;;;22.19;40.35;94421.56;4953355;28;20483;-64
2022/11/20 07:27:58;;;;;;;0.27;0.27;;;;;;;21.53;40.32;94423.03;4953735;28;20487;-65
2022/11/20 07:30:26;;;;;;;0.00;0.00;;;;;;;22.03;40.01;94415.38;4947644;28;21042;-69
2022/11/20 07:32:55;;;;;;;0.10;0.10;;;;;;;22.13;40.26;94420.25;4938113;29;20459;-64
2022/11/20 07:35:23;;;;;;;0.20;0.20;;;;;;;22.30;39.48;94414.63;4961493;28;20446;-64
2022/11/20 07:37:49;;;;;;;0.03;0.03;;;;;;;22.42;39.46;94414.59;4952818;28;21049;-67
2022/11/20 07:40:17;;;;;;;0.10;0.10;;;;;;;22.28;39.65;94411.50;4948347;28;20444;-66
2022/11/20 07:42:52;;;;;;;0.30;0.30;;;;;;;22.01;40.08;94418.41;4944276;28;20502;-69
2022/11/20 07:45:20;;;;;;;0.30;0.30;;;;;;;22.01;39.90;94417.63;4952629;28;20443;-65
2022/11/20 07:47:47;;;;;;;0.10;0.10;;;;;;;21.88;40.66;94413.41;4942265;28;20475;-67
2022/11/20 07:50:15;;;;;;;0.10;0.10;;;;;;;22.09;40.28;94425.50;4947971;29;20538;-68
2022/11/20 07:52:43;;;;;;;0.50;0.50;;;;;;;22.07;40.09;94421.59;4933118;29;20559;-68
2022/11/20 07:55:10;;;;;;;0.07;0.07;;;;;;;22.11;39.96;94427.84;4933405;29;20857;-66
2022/11/20 07:57:37;;;;;;;0.33;0.23;;;;;;;22.21;39.93;94422.00;4946576;29;20448;-68
2022/11/20 08:00:06;;;;;;;0.13;0.13;;;;;;;22.37;40.03;94425.50;4933382;29;20451;-64
2022/11/20 08:02:41;;;;;;;0.00;0.00;;;;;;;22.17;40.50;94431.78;4948709;28;20471;-66
2022/11/20 08:05:09;;;;;;;0.10;0.10;;;;;;;22.28;40.04;94427.53;4952023;28;20555;-65
2022/11/20 08:07:41;;;;;;;0.07;0.07;;;;;;;22.07;40.26;94411.72;4938045;29;20532;-67
2022/11/20 08:10:10;;;;;;;0.10;0.10;;;;;;;22.19;40.07;94428.81;4943766;28;20474;-67
2022/11/20 08:15:39;;;;;;;0.00;0.00;;;;;;;21.96;40.63;94415.97;4951967;28;21024;-68
2022/11/20 08:18:11;;;;;;;0.33;0.33;;;;;;;22.12;40.35;94405.34;4947797;29;21120;-66
2022/11/20 08:21:03;;;;;;;0.10;0.10;;;;;;;22.07;40.33;94406.38;4945902;28;20466;-66
2022/11/20 08:23:30;;;;;;;0.80;0.20;;;;;;;21.71;40.82;94403.00;4939672;29;21006;-66
2022/11/20 08:25:57;;;;;;;0.10;0.10;;;;;;;21.81;40.50;94408.66;4952175;28;20826;-67
2022/11/20 08:28:24;;;;;;;0.00;0.00;;;;;;;22.04;40.04;94412.38;4946803;28;20854;-67
2022/11/20 08:30:51;;;;;;;0.20;0.20;;;;;;;22.03;39.85;94410.06;4932857;29;20456;-66
2022/11/20 08:33:18;;;;;;;0.33;0.27;;;;;;;22.02;39.75;94408.50;4948867;29;20479;-66
2022/11/20 08:35:45;;;;;;;0.20;0.20;;;;;;;21.91;39.65;94412.78;4951278;28;20562;-65
2022/11/20 08:38:12;;;;;;;0.00;0.00;;;;;;;21.91;39.96;94418.88;4951414;28;20518;-67
2022/11/20 08:40:39;;;;;;;0.00;0.00;;;;;;;22.10;39.16;94416.38;4944419;28;20440;-66
2022/11/20 08:43:05;;;;;;;0.30;0.30;;;;;;;22.32;39.26;94415.06;4946067;29;20443;-67
2022/11/20 08:45:32;;;;;;;0.10;0.10;;;;;;;22.11;39.04;94417.16;4945804;28;20464;-67
2022/11/20 08:48:02;;;;;;;0.20;0.20;;;;;;;21.55;39.58;94420.81;4932236;29;20495;-64
2022/11/20 08:50:31;;;;;;;0.10;0.10;;;;;;;21.62;39.79;94434.34;4946424;29;20440;-66
2022/11/20 08:53:05;;;;;;;0.00;0.00;;;;;;;21.68;40.27;94452.44;4932645;29;20852;-66
2022/11/20 08:55:32;;;;;;;1.60;0.77;;;;;;;21.78;40.09;94464.53;4932000;29;21031;-67
2022/11/20 08:58:04;;;;;;;0.10;0.10;;;;;;;21.42;41.35;94473.34;4938613;29;20478;-70
2022/11/20 09:00:33;;;;;;;0.20;0.20;;;;;;;21.60;41.06;94469.34;4951163;28;20881;-67
2022/11/20 09:03:00;;;;;;;0.20;0.20;;;;;;;22.13;40.32;94449.63;4937762;28;20494;-69
2022/11/20 09:05:28;;;;;;;0.30;0.30;;;;;;;22.14;40.87;94459.16;4939943;28;20883;-65
2022/11/20 09:07:59;;;;;;;0.20;0.20;;;;;;;22.13;40.83;94452.28;4936108;28;20506;-69
2022/11/20 09:10:28;;;;;;;0.10;0.10;;;;;;;21.95;41.31;94454.41;4951383;29;20447;-66
2022/11/20 09:12:56;;;;;;;0.10;0.10;;;;;;;21.79;41.57;94452.78;4937552;28;20454;-66
2022/11/20 09:15:23;;;;;;;3.10;1.17;;;;;;;21.64;41.19;94467.53;4941278;28;20508;-68
2022/11/20 09:17:52;;;;;;;0.10;0.10;;;;;;;21.44;42.37;94479.09;4945668;29;21057;-68
2022/11/20 09:20:19;;;;;;;0.20;0.20;;;;;;;21.62;42.82;94480.44;4940256;29;20511;-65
2022/11/20 09:22:46;;;;;;;0.10;0.10;;;;;;;20.93;43.09;94475.13;4951356;28;20506;-68
2022/11/20 09:25:13;;;;;;;0.00;0.00;;;;;;;21.68;42.24;94457.78;4945020;28;20449;-67
2022/11/20 09:27:43;;;;;;;0.00;0.00;;;;;;;21.01;44.33;94481.50;4931957;28;20932;-68
2022/11/20 09:30:11;;;;;;;0.67;0.53;;;;;;;20.38;45.16;94488.06;4951088;28;20946;-64
2022/11/20 09:32:41;;;;;;;0.10;0.10;;;;;;;20.72;44.94;94474.41;4951418;28;20447;-63
2022/11/20 09:35:09;;;;;;;0.17;0.17;;;;;;;20.29;45.58;94476.66;4937630;28;20444;-64
2022/11/20 09:37:35;;;;;;;2.10;0.87;;;;;;;20.94;44.68;94460.72;4941164;28;20444;-62
2022/11/20 09:40:03;;;;;;;0.20;0.20;;;;;;;21.47;44.09;94451.81;4945086;29;20515;-62
2022/11/20 09:42:51;;;;;;;0.10;0.10;;;;;;;21.53;44.00;94447.78;4931885;29;20448;-61
2022/11/20 09:45:57;;;;;;;0.10;0.10;;;;;;;21.23;45.41;94440.34;4931529;29;20563;-62
2022/11/20 09:49:17;;;;;;;0.00;0.00;;;;;;;21.42;44.89;94430.72;4940810;28;20499;-62
2022/11/20 09:52:00;;;;;;;0.13;0.13;;;;;;;21.04;46.49;94433.66;4967475;28;20525;-64
2022/11/20 09:54:32;;;;;;;0.00;0.00;;;;;;;21.07;45.85;94417.03;4967251;28;20454;-61
2022/11/20 09:57:16;;;;;;;0.47;0.47;;;;;;;21.23;45.88;94419.03;4952813;28;20924;-62
2022/11/20 10:00:04;;;;;;;1.70;0.97;;;;;;;21.17;47.25;94415.03;4950765;28;20462;-62
2022/11/20 10:03:03;;;;;;;0.17;0.17;;;;;;;20.49;49.05;94416.56;4937292;28;20452;-62
2022/11/20 10:05:39;;;;;;;0.00;0.00;;;;;;;20.83;48.57;94416.19;4938576;28;20511;-64
2022/11/20 10:08:15;;;;;;;0.20;0.20;;;;;;;20.69;48.71;94421.81;4945081;29;20951;-62
2022/11/20 10:11:05;;;;;;;0.23;0.23;;;;;;;20.85;47.95;94417.44;4944708;28;20454;-65
2022/11/20 10:14:06;;;;;;;0.30;0.30;;;;;;;20.32;48.87;94406.84;4947300;29;20432;-66
2022/11/20 10:16:33;;;;;;;0.00;0.00;;;;;;;20.42;48.43;94409.09;4937262;28;20485;-65
2022/11/20 10:19:28;;;;;;;0.10;0.10;;;;;;;20.74;47.89;94397.66;4939280;28;20448;-64
2022/11/20 10:22:34;;;;;;;0.60;0.60;;;;;;;20.64;48.32;94397.28;4938738;29;20489;-64
2022/11/20 10:25:13;;;;;;;1.57;0.77;;;;;;;20.12;49.97;94400.44;4946474;28;20444;-65
2022/11/20 10:28:11;;;;;;;0.27;0.27;;;;;;;20.21;50.77;94392.41;4947572;28;20449;-64
2022/11/20 10:30:43;;;;;;;0.10;0.10;;;;;;;19.84;51.51;94364.84;4944262;28;20447;-64
2022/11/20 10:33:17;;;;;;;0.83;0.83;;;;;;;20.61;49.71;94397.94;4940918;28;20448;-69
2022/11/20 10:36:16;;;;;;;0.10;0.10;;;;;;;20.31;49.74;94384.00;4945009;28;20454;-64
2022/11/20 10:38:49;;;;;;;0.43;0.43;;;;;;;20.25;49.90;94395.19;4940924;28;20986;-66
2022/11/20 10:41:25;;;;;;;0.10;0.10;;;;;;;20.55;49.21;94400.03;4954323;28;20455;-64
2022/11/20 10:43:56;;;;;;;0.37;0.37;;;;;;;20.56;49.25;94390.97;4954361;28;20462;-65
2022/11/20 10:46:25;;;;;;;1.13;1.07;;;;;;;20.92;48.45;94393.69;4941437;28;20515;-64
2022/11/20 10:48:52;;;;;;;0.50;0.50;;;;;;;20.64;48.36;94405.25;4953223;28;20553;-62
2022/11/20 10:51:22;;;;;;;0.10;0.10;;;;;;;20.69;48.80;94416.47;4942033;28;20452;-65
2022/11/20 10:54:28;;;;;;;0.10;0.10;;;;;;;20.57;49.97;94410.34;4947836;29;20487;-63
2022/11/20 10:57:05;;;;;;;0.33;0.33;;;;;;;20.70;49.62;94390.66;4953158;28;20448;-64
2022/11/20 10:59:44;;;;;;;0.63;0.63;;;;;;;20.55;50.06;94409.91;4948364;28;20866;-65
2022/11/20 11:02:21;;;;;;;0.67;0.67;;;;;;;19.88;51.35;94423.47;4946882;29;20469;-62
2022/11/20 11:04:53;;;;;;;0.63;0.47;;;;;;;20.09;51.32;94434.88;4934437;28;20444;-63
2022/11/20 11:07:48;;;;;;;0.10;0.10;;;;;;;20.50;51.75;94426.09;4946842;29;20491;-60
2022/11/20 11:10:25;;;;;;;0.40;0.40;;;;;;;20.74;51.94;94450.91;4942809;28;20530;-65
2022/11/20 11:12:52;;;;;;;0.20;0.20;;;;;;;20.46;52.37;94457.91;4939793;28;20453;-65
2022/11/20 11:15:37;;;;;;;0.20;0.20;;;;;;;20.15;52.87;94465.50;4944592;28;20880;-62
2022/11/20 11:18:04;;;;;;;2.67;1.03;;;;;;;19.30;56.94;94492.56;4947811;29;20468;-62
2022/11/20 11:20:32;;;;;;;0.03;0.03;;;;;;;18.29;59.67;94495.88;4943368;28;20448;-62
2022/11/20 11:22:59;;;;;;;1.47;1.03;;;;;;;18.11;53.22;94473.91;4953235;28;20483;-62
2022/11/20 11:25:33;;;;;;;1.40;0.30;;;;;;;18.26;51.81;94483.25;4952873;28;21026;-61
2022/11/20 11:28:18;;;;;;;0.00;0.00;;;;;;;17.86;49.54;94460.63;4952792;28;20510;-61
2022/11/20 11:30:48;;;;;;;0.00;0.00;;;;;;;18.13;50.46;94468.28;4953023;28;20919;-63
2022/11/20 11:33:29;;;;;;;0.00;0.00;;;;;;;18.05;50.68;94469.03;4939134;28;20455;-62
2022/11/20 11:35:59;;;;;;;0.00;0.00;;;;;;;17.55;51.32;94481.16;4952643;29;20571;-64
2022/11/20 11:38:35;;;;;;;0.10;0.10;;;;;;;17.88;50.96;94482.31;4938815;28;20562;-64
2022/11/20 11:41:04;;;;;;;0.00;0.00;;;;;;;17.78;50.53;94471.97;4942001;28;20444;-67
2022/11/20 11:46:29;;;;;;;0.30;0.30;;;;;;;18.08;51.27;94471.09;4939185;28;20535;-63
2022/11/20 11:49:00;;;;;;;0.77;0.33;;;;;;;18.11;51.08;94481.06;4938506;29;20551;-63
2022/11/20 11:51:36;;;;;;;8.43;3.33;;;;;;;17.93;52.47;94448.47;4938521;28;20460;-65
2022/11/20 11:54:14;;;;;;;1.60;1.07;;;;;;;17.68;52.05;94459.03;4947890;29;20847;-64
2022/11/20 11:56:41;;;;;;;0.10;0.10;;;;;;;17.02;53.86;94479.38;4942842;29;20460;-62
2022/11/20 11:59:16;;;;;;;0.23;0.23;;;;;;;17.43;53.12;94472.97;4935314;29;20871;-65
2022/11/20 12:01:51;;;;;;;0.03;0.03;;;;;;;17.70;52.33;94468.22;4952537;28;20442;-61